sensor_id;sensor_type;location;lat;lon;timestamp;P1;durP1;ratioP1;P2;durP2;ratioP2
21266;SDS011;10791;53.108;18.326;2022-12-18T00:00:32;52.47;;;19.33;;
21266;SDS011;10791;53.108;18.326;2022-12-18T00:05:55;57.43;;;21.77;;
21266;SDS011;10791;53.108;18.326;2022-12-18T00:11:10;47.37;;;18.83;;
21266;SDS011;10791;53.108;18.326;2022-12-18T00:16:17;64.13;;;21.43;;
21266;SDS011;10791;53.108;18.326;2022-12-18T00:21:23;48.27;;;18.13;;
21266;SDS011;10791;53.108;18.326;2022-12-18T00:26:28;43.07;;;17.27;;
21266;SDS011;10791;53.108;18.326;2022-12-18T00:31:33;52.83;;;20.37;;
21266;SDS011;10791;53.108;18.326;2022-12-18T00:36:37;47.20;;;20.03;;
21266;SDS011;10791;53.108;18.326;2022-12-18T00:41:40;49.03;;;19.80;;
21266;SDS011;10791;53.108;18.326;2022-12-18T00:47:02;48.27;;;17.23;;
21266;SDS011;10791;53.108;18.326;2022-12-18T00:52:05;51.23;;;21.77;;
21266;SDS011;10791;53.108;18.326;2022-12-18T00:57:09;48.10;;;18.27;;
21266;SDS011;10791;53.108;18.326;2022-12-18T01:02:12;50.27;;;19.50;;
21266;SDS011;10791;53.108;18.326;2022-12-18T01:07:16;52.40;;;19.13;;
21266;SDS011;10791;53.108;18.326;2022-12-18T01:12:20;49.53;;;18.70;;
21266;SDS011;10791;53.108;18.326;2022-12-18T01:17:23;53.97;;;20.73;;
21266;SDS011;10791;53.108;18.326;2022-12-18T01:22:27;49.27;;;15.87;;
21266;SDS011;10791;53.108;18.326;2022-12-18T01:27:30;48.30;;;20.27;;
21266;SDS011;10791;53.108;18.326;2022-12-18T01:32:35;50.33;;;19.20;;
21266;SDS011;10791;53.108;18.326;2022-12-18T01:37:39;55.33;;;20.77;;
21266;SDS011;10791;53.108;18.326;2022-12-18T01:42:42;48.13;;;17.30;;
21266;SDS011;10791;53.108;18.326;2022-12-18T01:53:13;51.67;;;18.77;;
21266;SDS011;10791;53.108;18.326;2022-12-18T01:58:20;47.10;;;19.97;;
21266;SDS011;10791;53.108;18.326;2022-12-18T02:03:30;50.43;;;18.40;;
21266;SDS011;10791;53.108;18.326;2022-12-18T02:08:37;50.27;;;18.17;;
21266;SDS011;10791;53.108;18.326;2022-12-18T02:18:58;46.00;;;20.20;;
21266;SDS011;10791;53.108;18.326;2022-12-18T02:24:14;41.50;;;16.97;;
21266;SDS011;10791;53.108;18.326;2022-12-18T02:34:38;47.73;;;16.60;;
21266;SDS011;10791;53.108;18.326;2022-12-18T02:39:43;57.30;;;19.73;;
21266;SDS011;10791;53.108;18.326;2022-12-18T02:44:50;50.33;;;18.30;;
21266;SDS011;10791;53.108;18.326;2022-12-18T02:55:08;43.07;;;16.20;;
21266;SDS011;10791;53.108;18.326;2022-12-18T03:00:21;45.60;;;15.70;;
21266;SDS011;10791;53.108;18.326;2022-12-18T03:05:35;47.13;;;17.67;;
21266;SDS011;10791;53.108;18.326;2022-12-18T03:10:48;39.27;;;15.47;;
21266;SDS011;10791;53.108;18.326;2022-12-18T03:16:45;32.20;;;12.33;;
21266;SDS011;10791;53.108;18.326;2022-12-18T03:21:52;29.70;;;12.27;;
21266;SDS011;10791;53.108;18.326;2022-12-18T03:27:00;39.90;;;12.93;;
21266;SDS011;10791;53.108;18.326;2022-12-18T03:32:07;26.17;;;12.07;;
21266;SDS011;10791;53.108;18.326;2022-12-18T03:37:26;27.67;;;12.17;;
21266;SDS011;10791;53.108;18.326;2022-12-18T03:42:43;31.53;;;11.80;;
21266;SDS011;10791;53.108;18.326;2022-12-18T03:58:28;31.00;;;11.40;;
21266;SDS011;10791;53.108;18.326;2022-12-18T04:03:34;38.57;;;15.47;;
21266;SDS011;10791;53.108;18.326;2022-12-18T04:08:40;28.80;;;13.10;;
21266;SDS011;10791;53.108;18.326;2022-12-18T04:13:44;36.20;;;14.57;;
21266;SDS011;10791;53.108;18.326;2022-12-18T04:18:47;37.70;;;15.43;;
21266;SDS011;10791;53.108;18.326;2022-12-18T04:23:51;29.37;;;12.33;;
21266;SDS011;10791;53.108;18.326;2022-12-18T04:28:54;33.43;;;13.20;;
21266;SDS011;10791;53.108;18.326;2022-12-18T04:33:58;37.10;;;13.90;;
21266;SDS011;10791;53.108;18.326;2022-12-18T04:39:01;35.30;;;14.80;;
21266;SDS011;10791;53.108;18.326;2022-12-18T04:44:05;30.60;;;11.77;;
21266;SDS011;10791;53.108;18.326;2022-12-18T04:49:08;40.40;;;14.80;;
21266;SDS011;10791;53.108;18.326;2022-12-18T04:54:13;31.53;;;13.83;;
21266;SDS011;10791;53.108;18.326;2022-12-18T04:59:17;36.37;;;14.47;;
21266;SDS011;10791;53.108;18.326;2022-12-18T05:09:51;31.60;;;12.57;;
21266;SDS011;10791;53.108;18.326;2022-12-18T05:14:55;34.37;;;14.50;;
21266;SDS011;10791;53.108;18.326;2022-12-18T05:19:58;28.27;;;11.90;;
21266;SDS011;10791;53.108;18.326;2022-12-18T05:25:01;28.43;;;11.53;;
21266;SDS011;10791;53.108;18.326;2022-12-18T05:30:05;24.27;;;11.60;;
21266;SDS011;10791;53.108;18.326;2022-12-18T05:35:10;35.47;;;12.47;;
21266;SDS011;10791;53.108;18.326;2022-12-18T05:40:14;35.27;;;13.23;;
21266;SDS011;10791;53.108;18.326;2022-12-18T05:45:17;35.80;;;15.20;;
21266;SDS011;10791;53.108;18.326;2022-12-18T05:50:20;34.20;;;14.77;;
21266;SDS011;10791;53.108;18.326;2022-12-18T05:55:23;22.10;;;11.97;;
21266;SDS011;10791;53.108;18.326;2022-12-18T06:00:27;32.47;;;13.30;;
21266;SDS011;10791;53.108;18.326;2022-12-18T06:05:34;36.37;;;13.70;;
21266;SDS011;10791;53.108;18.326;2022-12-18T06:10:39;29.43;;;13.30;;
21266;SDS011;10791;53.108;18.326;2022-12-18T06:15:43;33.20;;;12.50;;
21266;SDS011;10791;53.108;18.326;2022-12-18T06:20:54;33.97;;;12.77;;
21266;SDS011;10791;53.108;18.326;2022-12-18T06:25:58;38.33;;;12.27;;
21266;SDS011;10791;53.108;18.326;2022-12-18T06:31:08;29.43;;;12.30;;
21266;SDS011;10791;53.108;18.326;2022-12-18T06:36:12;27.83;;;12.57;;
21266;SDS011;10791;53.108;18.326;2022-12-18T06:41:17;37.60;;;14.63;;
21266;SDS011;10791;53.108;18.326;2022-12-18T06:46:21;40.10;;;12.83;;
21266;SDS011;10791;53.108;18.326;2022-12-18T06:51:25;40.30;;;14.77;;
21266;SDS011;10791;53.108;18.326;2022-12-18T06:56:28;45.73;;;16.33;;
21266;SDS011;10791;53.108;18.326;2022-12-18T07:01:32;36.50;;;14.00;;
21266;SDS011;10791;53.108;18.326;2022-12-18T07:06:35;39.53;;;12.90;;
21266;SDS011;10791;53.108;18.326;2022-12-18T07:11:39;23.53;;;9.63;;
21266;SDS011;10791;53.108;18.326;2022-12-18T07:16:42;29.93;;;12.20;;
21266;SDS011;10791;53.108;18.326;2022-12-18T07:21:46;22.30;;;9.97;;
21266;SDS011;10791;53.108;18.326;2022-12-18T07:26:49;31.53;;;12.20;;
21266;SDS011;10791;53.108;18.326;2022-12-18T07:31:53;28.53;;;11.97;;
21266;SDS011;10791;53.108;18.326;2022-12-18T07:36:56;32.43;;;11.83;;
21266;SDS011;10791;53.108;18.326;2022-12-18T07:42:00;33.53;;;13.37;;
21266;SDS011;10791;53.108;18.326;2022-12-18T07:47:23;32.03;;;13.30;;
21266;SDS011;10791;53.108;18.326;2022-12-18T07:52:27;40.20;;;13.90;;
21266;SDS011;10791;53.108;18.326;2022-12-18T07:57:30;32.43;;;12.93;;
21266;SDS011;10791;53.108;18.326;2022-12-18T08:02:52;42.13;;;13.40;;
21266;SDS011;10791;53.108;18.326;2022-12-18T08:07:56;43.27;;;14.47;;
21266;SDS011;10791;53.108;18.326;2022-12-18T08:13:01;34.53;;;13.13;;
21266;SDS011;10791;53.108;18.326;2022-12-18T08:18:06;31.67;;;13.10;;
21266;SDS011;10791;53.108;18.326;2022-12-18T08:23:15;33.27;;;13.50;;
21266;SDS011;10791;53.108;18.326;2022-12-18T08:28:19;29.70;;;11.23;;
21266;SDS011;10791;53.108;18.326;2022-12-18T08:33:23;28.50;;;9.63;;
21266;SDS011;10791;53.108;18.326;2022-12-18T08:38:27;34.00;;;9.93;;
21266;SDS011;10791;53.108;18.326;2022-12-18T08:43:30;30.93;;;12.53;;
21266;SDS011;10791;53.108;18.326;2022-12-18T08:48:53;30.23;;;10.97;;
21266;SDS011;10791;53.108;18.326;2022-12-18T08:53:58;43.13;;;14.83;;
21266;SDS011;10791;53.108;18.326;2022-12-18T08:59:02;40.30;;;14.97;;
21266;SDS011;10791;53.108;18.326;2022-12-18T09:04:07;31.97;;;12.13;;
21266;SDS011;10791;53.108;18.326;2022-12-18T09:09:12;48.50;;;15.37;;
21266;SDS011;10791;53.108;18.326;2022-12-18T09:14:15;38.77;;;13.53;;
21266;SDS011;10791;53.108;18.326;2022-12-18T09:19:19;51.87;;;17.97;;
21266;SDS011;10791;53.108;18.326;2022-12-18T09:24:23;36.40;;;15.27;;
21266;SDS011;10791;53.108;18.326;2022-12-18T09:29:26;31.83;;;14.63;;
21266;SDS011;10791;53.108;18.326;2022-12-18T09:34:29;35.43;;;15.87;;
21266;SDS011;10791;53.108;18.326;2022-12-18T09:39:34;28.43;;;11.70;;
21266;SDS011;10791;53.108;18.326;2022-12-18T09:44:41;26.83;;;10.37;;
21266;SDS011;10791;53.108;18.326;2022-12-18T09:49:53;26.23;;;11.50;;
21266;SDS011;10791;53.108;18.326;2022-12-18T09:55:44;22.53;;;8.83;;
21266;SDS011;10791;53.108;18.326;2022-12-18T10:00:42;40.67;;;14.37;;
21266;SDS011;10791;53.108;18.326;2022-12-18T10:16:34;35.13;;;13.47;;
21266;SDS011;10791;53.108;18.326;2022-12-18T10:22:48;32.17;;;10.87;;
21266;SDS011;10791;53.108;18.326;2022-12-18T10:27:23;45.30;;;16.07;;
21266;SDS011;10791;53.108;18.326;2022-12-18T10:32:29;36.67;;;14.37;;
21266;SDS011;10791;53.108;18.326;2022-12-18T10:37:33;26.87;;;10.50;;
21266;SDS011;10791;53.108;18.326;2022-12-18T10:42:36;35.33;;;12.47;;
21266;SDS011;10791;53.108;18.326;2022-12-18T10:47:46;31.60;;;12.57;;
21266;SDS011;10791;53.108;18.326;2022-12-18T10:52:55;31.03;;;13.37;;
21266;SDS011;10791;53.108;18.326;2022-12-18T11:08:58;27.60;;;11.37;;
21266;SDS011;10791;53.108;18.326;2022-12-18T11:14:17;27.67;;;11.43;;
21266;SDS011;10791;53.108;18.326;2022-12-18T11:19:31;25.87;;;10.90;;
21266;SDS011;10791;53.108;18.326;2022-12-18T11:24:41;34.17;;;11.87;;
21266;SDS011;10791;53.108;18.326;2022-12-18T11:29:44;42.00;;;14.23;;
21266;SDS011;10791;53.108;18.326;2022-12-18T11:34:50;42.47;;;14.27;;
21266;SDS011;10791;53.108;18.326;2022-12-18T11:40:02;36.53;;;12.87;;
21266;SDS011;10791;53.108;18.326;2022-12-18T11:50:26;36.43;;;13.40;;
21266;SDS011;10791;53.108;18.326;2022-12-18T12:00:49;40.00;;;14.10;;
21266;SDS011;10791;53.108;18.326;2022-12-18T12:11:28;35.77;;;12.50;;
21266;SDS011;10791;53.108;18.326;2022-12-18T12:33:41;38.43;;;14.33;;
21266;SDS011;10791;53.108;18.326;2022-12-18T12:39:05;50.33;;;17.33;;
21266;SDS011;10791;53.108;18.326;2022-12-18T12:44:18;55.77;;;18.33;;
21266;SDS011;10791;53.108;18.326;2022-12-18T12:49:30;43.47;;;15.63;;
21266;SDS011;10791;53.108;18.326;2022-12-18T12:54:53;41.93;;;14.87;;
21266;SDS011;10791;53.108;18.326;2022-12-18T13:00:05;38.83;;;15.27;;
21266;SDS011;10791;53.108;18.326;2022-12-18T13:10:39;28.67;;;10.30;;
21266;SDS011;10791;53.108;18.326;2022-12-18T13:15:45;51.83;;;18.67;;
21266;SDS011;10791;53.108;18.326;2022-12-18T13:36:42;41.73;;;14.47;;
21266;SDS011;10791;53.108;18.326;2022-12-18T13:42:37;40.63;;;14.87;;
21266;SDS011;10791;53.108;18.326;2022-12-18T13:47:53;38.67;;;14.27;;
21266;SDS011;10791;53.108;18.326;2022-12-18T13:52:40;44.00;;;17.50;;
21266;SDS011;10791;53.108;18.326;2022-12-18T13:57:46;46.17;;;14.57;;
21266;SDS011;10791;53.108;18.326;2022-12-18T14:08:32;31.57;;;13.60;;
21266;SDS011;10791;53.108;18.326;2022-12-18T14:13:44;42.90;;;14.47;;
21266;SDS011;10791;53.108;18.326;2022-12-18T14:18:56;58.80;;;20.33;;
21266;SDS011;10791;53.108;18.326;2022-12-18T14:29:27;40.93;;;15.20;;
21266;SDS011;10791;53.108;18.326;2022-12-18T14:34:32;49.17;;;16.57;;
21266;SDS011;10791;53.108;18.326;2022-12-18T14:39:35;46.77;;;16.73;;
21266;SDS011;10791;53.108;18.326;2022-12-18T14:44:39;50.47;;;17.57;;
21266;SDS011;10791;53.108;18.326;2022-12-18T14:50:03;60.33;;;17.33;;
21266;SDS011;10791;53.108;18.326;2022-12-18T14:55:16;49.37;;;19.17;;
21266;SDS011;10791;53.108;18.326;2022-12-18T15:00:22;58.03;;;18.27;;
21266;SDS011;10791;53.108;18.326;2022-12-18T15:05:28;70.23;;;24.10;;
21266;SDS011;10791;53.108;18.326;2022-12-18T15:10:34;70.40;;;21.97;;
21266;SDS011;10791;53.108;18.326;2022-12-18T15:15:49;36.47;;;16.40;;
21266;SDS011;10791;53.108;18.326;2022-12-18T15:20:56;52.03;;;18.27;;
21266;SDS011;10791;53.108;18.326;2022-12-18T15:26:06;64.13;;;20.93;;
21266;SDS011;10791;53.108;18.326;2022-12-18T15:36:20;53.87;;;17.90;;
21266;SDS011;10791;53.108;18.326;2022-12-18T15:41:33;52.17;;;18.80;;
21266;SDS011;10791;53.108;18.326;2022-12-18T15:46:41;53.77;;;17.97;;
21266;SDS011;10791;53.108;18.326;2022-12-18T15:51:46;59.60;;;18.10;;
21266;SDS011;10791;53.108;18.326;2022-12-18T15:56:55;71.13;;;20.30;;
21266;SDS011;10791;53.108;18.326;2022-12-18T16:02:19;70.60;;;22.47;;
21266;SDS011;10791;53.108;18.326;2022-12-18T16:07:26;54.53;;;20.23;;
21266;SDS011;10791;53.108;18.326;2022-12-18T16:12:32;52.97;;;19.33;;
21266;SDS011;10791;53.108;18.326;2022-12-18T16:17:38;35.63;;;14.57;;
21266;SDS011;10791;53.108;18.326;2022-12-18T16:22:44;60.17;;;20.43;;
21266;SDS011;10791;53.108;18.326;2022-12-18T16:27:52;36.90;;;14.07;;
21266;SDS011;10791;53.108;18.326;2022-12-18T16:33:18;45.53;;;16.83;;
21266;SDS011;10791;53.108;18.326;2022-12-18T16:38:23;33.07;;;14.43;;
21266;SDS011;10791;53.108;18.326;2022-12-18T16:43:30;54.13;;;17.20;;
21266;SDS011;10791;53.108;18.326;2022-12-18T16:48:37;55.57;;;19.20;;
21266;SDS011;10791;53.108;18.326;2022-12-18T16:53:42;55.07;;;21.33;;
21266;SDS011;10791;53.108;18.326;2022-12-18T16:58:52;54.73;;;17.53;;
21266;SDS011;10791;53.108;18.326;2022-12-18T17:04:02;87.73;;;26.60;;
21266;SDS011;10791;53.108;18.326;2022-12-18T17:09:12;47.57;;;14.80;;
21266;SDS011;10791;53.108;18.326;2022-12-18T17:14:25;41.27;;;13.47;;
21266;SDS011;10791;53.108;18.326;2022-12-18T17:19:32;25.17;;;10.80;;
21266;SDS011;10791;53.108;18.326;2022-12-18T17:24:38;56.43;;;17.57;;
21266;SDS011;10791;53.108;18.326;2022-12-18T17:29:45;48.97;;;16.73;;
21266;SDS011;10791;53.108;18.326;2022-12-18T17:34:53;38.07;;;12.43;;
21266;SDS011;10791;53.108;18.326;2022-12-18T17:40:08;44.10;;;18.00;;
21266;SDS011;10791;53.108;18.326;2022-12-18T17:45:16;61.13;;;23.27;;
21266;SDS011;10791;53.108;18.326;2022-12-18T17:50:23;59.60;;;18.73;;
21266;SDS011;10791;53.108;18.326;2022-12-18T17:55:28;35.53;;;11.83;;
21266;SDS011;10791;53.108;18.326;2022-12-18T18:00:33;22.30;;;10.00;;
21266;SDS011;10791;53.108;18.326;2022-12-18T18:06:04;56.10;;;17.53;;
21266;SDS011;10791;53.108;18.326;2022-12-18T18:11:15;45.57;;;18.70;;
21266;SDS011;10791;53.108;18.326;2022-12-18T18:16:40;49.10;;;18.90;;
21266;SDS011;10791;53.108;18.326;2022-12-18T18:21:47;26.13;;;11.00;;
21266;SDS011;10791;53.108;18.326;2022-12-18T18:26:53;53.23;;;17.27;;
21266;SDS011;10791;53.108;18.326;2022-12-18T18:31:58;44.03;;;16.80;;
21266;SDS011;10791;53.108;18.326;2022-12-18T18:37:04;38.17;;;14.80;;
21266;SDS011;10791;53.108;18.326;2022-12-18T18:42:11;45.10;;;14.67;;
21266;SDS011;10791;53.108;18.326;2022-12-18T18:47:15;50.10;;;17.50;;
21266;SDS011;10791;53.108;18.326;2022-12-18T18:52:20;59.73;;;17.90;;
21266;SDS011;10791;53.108;18.326;2022-12-18T18:57:25;46.53;;;15.97;;
21266;SDS011;10791;53.108;18.326;2022-12-18T19:02:33;64.23;;;19.87;;
21266;SDS011;10791;53.108;18.326;2022-12-18T19:07:41;56.00;;;19.80;;
21266;SDS011;10791;53.108;18.326;2022-12-18T19:12:45;44.10;;;15.43;;
21266;SDS011;10791;53.108;18.326;2022-12-18T19:18:13;40.77;;;16.10;;
21266;SDS011;10791;53.108;18.326;2022-12-18T19:23:28;52.77;;;17.10;;
21266;SDS011;10791;53.108;18.326;2022-12-18T19:28:34;52.13;;;18.60;;
21266;SDS011;10791;53.108;18.326;2022-12-18T19:33:40;46.37;;;16.37;;
21266;SDS011;10791;53.108;18.326;2022-12-18T19:38:47;47.90;;;17.33;;
21266;SDS011;10791;53.108;18.326;2022-12-18T19:43:52;37.17;;;11.53;;
21266;SDS011;10791;53.108;18.326;2022-12-18T19:49:02;30.43;;;14.10;;
21266;SDS011;10791;53.108;18.326;2022-12-18T19:54:08;56.93;;;17.80;;
21266;SDS011;10791;53.108;18.326;2022-12-18T19:59:20;42.10;;;14.50;;
21266;SDS011;10791;53.108;18.326;2022-12-18T20:04:25;48.83;;;18.43;;
21266;SDS011;10791;53.108;18.326;2022-12-18T20:09:31;53.60;;;17.57;;
21266;SDS011;10791;53.108;18.326;2022-12-18T20:14:37;26.80;;;10.47;;
21266;SDS011;10791;53.108;18.326;2022-12-18T20:19:47;39.13;;;14.67;;
21266;SDS011;10791;53.108;18.326;2022-12-18T20:24:51;44.23;;;14.53;;
21266;SDS011;10791;53.108;18.326;2022-12-18T20:29:57;55.07;;;18.07;;
21266;SDS011;10791;53.108;18.326;2022-12-18T20:35:02;66.00;;;18.73;;
21266;SDS011;10791;53.108;18.326;2022-12-18T20:40:07;42.57;;;14.73;;
21266;SDS011;10791;53.108;18.326;2022-12-18T20:45:15;47.87;;;17.80;;
21266;SDS011;10791;53.108;18.326;2022-12-18T20:50:19;31.33;;;14.33;;
21266;SDS011;10791;53.108;18.326;2022-12-18T20:55:24;38.43;;;13.80;;
21266;SDS011;10791;53.108;18.326;2022-12-18T21:00:28;41.07;;;15.07;;
21266;SDS011;10791;53.108;18.326;2022-12-18T21:05:32;52.47;;;17.30;;
21266;SDS011;10791;53.108;18.326;2022-12-18T21:10:39;33.73;;;11.97;;
21266;SDS011;10791;53.108;18.326;2022-12-18T21:15:45;39.20;;;13.97;;
21266;SDS011;10791;53.108;18.326;2022-12-18T21:20:49;38.73;;;14.17;;
21266;SDS011;10791;53.108;18.326;2022-12-18T21:25:52;20.27;;;10.73;;
21266;SDS011;10791;53.108;18.326;2022-12-18T21:31:00;14.90;;;7.87;;
21266;SDS011;10791;53.108;18.326;2022-12-18T21:36:04;21.17;;;10.53;;
21266;SDS011;10791;53.108;18.326;2022-12-18T21:41:13;40.10;;;15.37;;
21266;SDS011;10791;53.108;18.326;2022-12-18T21:46:44;28.70;;;13.37;;
21266;SDS011;10791;53.108;18.326;2022-12-18T21:51:59;28.60;;;13.97;;
21266;SDS011;10791;53.108;18.326;2022-12-18T21:57:05;30.10;;;12.00;;
21266;SDS011;10791;53.108;18.326;2022-12-18T22:02:11;32.20;;;11.47;;
21266;SDS011;10791;53.108;18.326;2022-12-18T22:07:17;24.50;;;11.77;;
21266;SDS011;10791;53.108;18.326;2022-12-18T22:12:20;39.43;;;12.70;;
21266;SDS011;10791;53.108;18.326;2022-12-18T22:17:44;30.17;;;13.47;;
21266;SDS011;10791;53.108;18.326;2022-12-18T22:22:48;34.53;;;13.33;;
21266;SDS011;10791;53.108;18.326;2022-12-18T22:27:53;28.37;;;12.67;;
21266;SDS011;10791;53.108;18.326;2022-12-18T22:33:17;24.17;;;10.43;;
21266;SDS011;10791;53.108;18.326;2022-12-18T22:38:21;23.37;;;11.03;;
21266;SDS011;10791;53.108;18.326;2022-12-18T22:43:24;30.70;;;11.27;;
21266;SDS011;10791;53.108;18.326;2022-12-18T22:48:27;31.50;;;14.07;;
21266;SDS011;10791;53.108;18.326;2022-12-18T22:53:32;34.40;;;14.43;;
21266;SDS011;10791;53.108;18.326;2022-12-18T22:58:36;47.73;;;19.10;;
21266;SDS011;10791;53.108;18.326;2022-12-18T23:03:40;25.13;;;13.37;;
21266;SDS011;10791;53.108;18.326;2022-12-18T23:08:44;18.03;;;8.03;;
21266;SDS011;10791;53.108;18.326;2022-12-18T23:13:54;22.70;;;9.33;;
21266;SDS011;10791;53.108;18.326;2022-12-18T23:18:59;28.37;;;12.83;;
21266;SDS011;10791;53.108;18.326;2022-12-18T23:24:04;37.53;;;13.60;;
21266;SDS011;10791;53.108;18.326;2022-12-18T23:29:08;34.27;;;13.13;;
21266;SDS011;10791;53.108;18.326;2022-12-18T23:34:12;32.43;;;14.10;;
21266;SDS011;10791;53.108;18.326;2022-12-18T23:39:16;20.57;;;9.70;;
21266;SDS011;10791;53.108;18.326;2022-12-18T23:44:31;20.30;;;8.83;;
21266;SDS011;10791;53.108;18.326;2022-12-18T23:49:35;32.57;;;14.77;;
21266;SDS011;10791;53.108;18.326;2022-12-18T23:54:38;26.50;;;10.17;;
21266;SDS011;10791;53.108;18.326;2022-12-18T23:59:43;20.57;;;8.37;;
